createdAt,value
2018-02-22T00:00:31.751Z,52.41
2018-02-22T00:03:00.161Z,51.47
2018-02-22T00:05:28.564Z,52.05
2018-02-22T00:07:56.965Z,50.94
2018-02-22T00:10:28.425Z,49.96
2018-02-22T00:12:56.894Z,49.48
2018-02-22T00:15:25.310Z,51.94
2018-02-22T00:17:53.694Z,52.87
2018-02-22T00:20:22.112Z,51.90
2018-02-22T00:22:50.582Z,49.41
2018-02-22T00:25:19.126Z,50.88
2018-02-22T00:27:47.536Z,53.49
2018-02-22T00:30:15.945Z,50.52
2018-02-22T00:32:44.355Z,52.28
2018-02-22T00:35:12.760Z,53.19
2018-02-22T00:37:41.240Z,53.08
2018-02-22T00:40:09.650Z,54.99
2018-02-22T00:42:38.073Z,51.96
2018-02-22T00:45:06.507Z,56.06
2018-02-22T00:47:34.910Z,52.77
2018-02-22T00:50:03.378Z,51.99
2018-02-22T00:52:31.783Z,56.34
2018-02-22T00:55:00.182Z,54.28
2018-02-22T00:57:28.573Z,57.32
2018-02-22T00:59:57.098Z,55.68
2018-02-22T01:02:25.674Z,56.06
2018-02-22T01:04:54.062Z,55.41
2018-02-22T01:07:22.453Z,53.66
2018-02-22T01:09:50.872Z,56.17
2018-02-22T01:12:19.336Z,54.46
2018-02-22T01:14:47.811Z,54.47
2018-02-22T01:17:16.214Z,53.20
2018-02-22T01:19:44.621Z,56.12
2018-02-22T01:22:13.031Z,58.21
2018-02-22T01:24:41.426Z,56.18
2018-02-22T01:27:09.828Z,56.21
2018-02-22T01:29:38.241Z,54.28
2018-02-22T01:32:06.637Z,53.63
2018-02-22T01:34:35.053Z,56.20
2018-02-22T01:37:04.088Z,57.15
2018-02-22T01:39:32.481Z,57.54
2018-02-22T01:42:00.871Z,57.96
2018-02-22T01:44:29.271Z,55.02
2018-02-22T01:46:57.663Z,56.63
2018-02-22T01:49:26.060Z,57.12
2018-02-22T01:51:54.548Z,56.68
2018-02-22T01:54:22.952Z,56.23
2018-02-22T01:56:51.335Z,56.35
2018-02-22T01:59:19.748Z,57.65
2018-02-22T02:01:48.674Z,56.29
2018-02-22T02:04:17.083Z,57.43
2018-02-22T02:06:45.482Z,55.93
2018-02-22T02:09:13.937Z,54.33
2018-02-22T02:11:42.334Z,57.43
2018-02-22T02:14:10.725Z,58.91
2018-02-22T02:16:39.149Z,57.91
2018-02-22T02:19:07.576Z,56.49
2018-02-22T02:21:36.056Z,56.55
2018-02-22T02:24:04.460Z,55.09
2018-02-22T02:26:32.959Z,58.66
2018-02-22T02:29:01.342Z,56.55
2018-02-22T02:31:29.832Z,56.24
2018-02-22T02:33:58.218Z,56.01
2018-02-22T02:36:26.634Z,55.30
2018-02-22T02:38:55.106Z,56.62
2018-02-22T02:41:23.499Z,56.03
2018-02-22T02:43:51.884Z,55.89
2018-02-22T02:46:20.292Z,52.70
2018-02-22T02:51:23.257Z,56.14
2018-02-22T02:53:51.740Z,52.64
2018-02-22T02:56:20.133Z,52.37
2018-02-22T02:58:48.543Z,54.89
2018-02-22T03:01:16.942Z,53.14
2018-02-22T03:03:45.356Z,52.77
2018-02-22T03:06:13.760Z,52.82
2018-02-22T03:08:42.167Z,53.48
2018-02-22T03:11:10.574Z,52.37
2018-02-22T03:13:38.997Z,51.87
2018-02-22T03:16:07.391Z,52.79
2018-02-22T03:18:35.800Z,53.94
2018-02-22T03:21:04.232Z,53.17
2018-02-22T03:23:32.642Z,52.39
2018-02-22T03:26:01.156Z,54.21
2018-02-22T03:28:29.564Z,53.50
2018-02-22T03:30:57.981Z,54.17
2018-02-22T03:33:26.469Z,52.79
2018-02-22T03:35:54.839Z,51.88
2018-02-22T03:38:23.335Z,52.02
2018-02-22T03:40:51.829Z,51.54
2018-02-22T03:43:20.247Z,52.06
2018-02-22T03:45:48.939Z,51.88
2018-02-22T03:48:17.306Z,53.16
2018-02-22T03:50:45.743Z,52.10
2018-02-22T03:53:14.111Z,52.23
2018-02-22T03:55:42.514Z,53.17
2018-02-22T03:58:10.904Z,53.38
2018-02-22T04:00:39.421Z,53.32
2018-02-22T04:03:07.792Z,52.67
2018-02-22T04:05:36.256Z,51.79
2018-02-22T04:08:04.622Z,52.63
2018-02-22T04:10:33.094Z,52.10
2018-02-22T04:13:01.506Z,52.16
2018-02-22T04:15:29.929Z,55.52
2018-02-22T04:17:58.487Z,53.86
2018-02-22T04:20:26.892Z,52.23
2018-02-22T04:22:55.253Z,51.98
2018-02-22T04:25:23.743Z,51.70
2018-02-22T04:27:52.118Z,51.45
2018-02-22T04:30:20.612Z,51.74
2018-02-22T04:32:48.988Z,52.13
2018-02-22T04:35:17.398Z,51.95
2018-02-22T04:37:45.767Z,52.25
2018-02-22T04:40:14.134Z,52.15
2018-02-22T04:42:42.574Z,51.71
2018-02-22T04:45:10.966Z,51.55
2018-02-22T04:47:39.373Z,52.02
2018-02-22T04:50:07.752Z,51.88
2018-02-22T04:52:36.129Z,54.05
2018-02-22T04:55:04.584Z,53.03
2018-02-22T04:57:32.978Z,52.76
2018-02-22T05:00:02.386Z,53.13
2018-02-22T05:02:30.779Z,53.01
2018-02-22T05:04:59.141Z,56.15
2018-02-22T05:07:27.585Z,58.05
2018-02-22T05:09:56.006Z,54.66
2018-02-22T05:12:24.397Z,54.53
2018-02-22T05:14:52.800Z,53.89
2018-02-22T05:17:21.162Z,53.37
2018-02-22T05:19:49.609Z,53.25
2018-02-22T05:22:18.007Z,53.54
2018-02-22T05:24:46.383Z,53.10
2018-02-22T05:27:14.765Z,52.72
2018-02-22T05:29:43.143Z,53.01
2018-02-22T05:32:11.621Z,53.29
2018-02-22T05:34:40.030Z,53.55
2018-02-22T05:37:08.400Z,53.06
2018-02-22T05:39:36.769Z,52.39
2018-02-22T05:42:05.158Z,53.11
2018-02-22T05:44:33.699Z,52.67
2018-02-22T05:47:02.091Z,52.20
2018-02-22T05:49:30.464Z,52.97
2018-02-22T05:51:58.844Z,52.99
2018-02-22T05:54:27.215Z,55.41
2018-02-22T05:56:55.663Z,53.10
2018-02-22T05:59:24.084Z,53.26
2018-02-22T06:01:52.454Z,53.55
2018-02-22T06:04:20.867Z,52.93
2018-02-22T06:06:49.354Z,53.35
2018-02-22T06:09:17.802Z,54.06
2018-02-22T06:11:46.194Z,53.84
2018-02-22T06:14:14.571Z,55.31
2018-02-22T06:16:42.948Z,54.50
2018-02-22T06:19:11.323Z,54.67
2018-02-22T06:21:39.762Z,53.08
2018-02-22T06:24:08.165Z,54.48
2018-02-22T06:26:36.546Z,53.19
2018-02-22T06:29:04.935Z,54.25
2018-02-22T06:31:33.308Z,53.91
2018-02-22T06:34:01.763Z,54.03
2018-02-22T06:36:30.485Z,53.79
2018-02-22T06:38:58.881Z,54.54
2018-02-22T06:41:27.378Z,53.24
2018-02-22T06:43:55.774Z,54.27
2018-02-22T06:46:24.211Z,54.48
2018-02-22T06:48:52.620Z,54.11
2018-02-22T06:51:21.883Z,54.07
2018-02-22T06:53:50.266Z,54.62
2018-02-22T06:56:18.658Z,53.46
2018-02-22T06:58:47.182Z,54.17
2018-02-22T07:01:15.560Z,53.22
2018-02-22T07:03:43.931Z,53.67
2018-02-22T07:06:12.308Z,54.24
2018-02-22T07:08:40.805Z,54.00
2018-02-22T07:11:09.271Z,53.49
2018-02-22T07:13:37.677Z,53.78
2018-02-22T07:16:06.045Z,53.89
2018-02-22T07:18:34.420Z,53.41
2018-02-22T07:21:02.918Z,53.00
2018-02-22T07:23:31.374Z,53.17
2018-02-22T07:25:59.870Z,52.46
2018-02-22T07:28:28.240Z,53.67
2018-02-22T07:30:56.636Z,52.99
2018-02-22T07:33:25.013Z,53.16
2018-02-22T07:35:53.774Z,51.93
2018-02-22T07:38:22.281Z,55.60
2018-02-22T07:40:50.659Z,53.54
2018-02-22T07:43:19.055Z,51.57
2018-02-22T07:45:47.436Z,52.95
2018-02-22T07:48:15.871Z,52.56
2018-02-22T07:50:44.313Z,51.54
2018-02-22T07:53:12.693Z,51.59
2018-02-22T07:55:41.070Z,52.23
2018-02-22T07:58:09.480Z,51.45
2018-02-22T08:00:38.104Z,53.60
2018-02-22T08:03:06.482Z,51.72
2018-02-22T08:05:35.022Z,50.74
2018-02-22T08:08:03.364Z,50.43
2018-02-22T08:10:31.744Z,51.62
2018-02-22T08:13:00.194Z,50.44
2018-02-22T08:15:28.562Z,50.23
2018-02-22T08:17:56.925Z,49.88
2018-02-22T08:20:25.335Z,52.22
2018-02-22T08:22:53.713Z,50.52
2018-02-22T08:25:22.180Z,50.00
2018-02-22T08:27:50.686Z,48.22
2018-02-22T08:30:19.206Z,47.40
2018-02-22T08:32:47.671Z,47.91
2018-02-22T08:35:16.059Z,46.18
2018-02-22T08:37:44.438Z,44.75
2018-02-22T08:40:12.822Z,45.16
2018-02-22T08:42:41.356Z,44.25
2018-02-22T08:45:09.736Z,44.62
2018-02-22T08:47:38.102Z,43.67
2018-02-22T08:50:06.551Z,43.34
2018-02-22T08:52:35.074Z,45.11
2018-02-22T08:55:03.587Z,44.09
2018-02-22T08:57:32.158Z,45.32
2018-02-22T09:00:00.533Z,44.50
2018-02-22T09:02:28.916Z,45.80
2018-02-22T09:04:57.301Z,43.82
2018-02-22T09:07:25.756Z,46.49
2018-02-22T09:09:54.138Z,45.81
2018-02-22T09:12:22.523Z,44.08
2018-02-22T09:14:50.910Z,43.25
2018-02-22T09:17:19.316Z,41.04
2018-02-22T09:19:47.792Z,39.03
2018-02-22T09:22:16.197Z,38.93
2018-02-22T09:24:44.552Z,37.58
2018-02-22T09:27:13.015Z,37.87
2018-02-22T09:29:41.434Z,35.45
2018-02-22T09:32:09.867Z,37.79
2018-02-22T09:34:38.234Z,38.62
2018-02-22T09:37:06.631Z,38.69
2018-02-22T09:39:35.019Z,36.22
2018-02-22T09:42:03.436Z,36.02
2018-02-22T09:44:31.981Z,35.80
2018-02-22T09:47:00.357Z,37.17
2018-02-22T09:49:28.773Z,35.51
2018-02-22T09:51:57.122Z,35.87
2018-02-22T09:54:25.482Z,36.64
2018-02-22T09:56:53.923Z,36.20
2018-02-22T09:59:22.307Z,38.53
2018-02-22T10:01:50.667Z,36.85
2018-02-22T10:04:19.063Z,41.77
2018-02-22T10:06:47.434Z,42.49
2018-02-22T10:09:16.074Z,41.11
2018-02-22T10:11:44.499Z,40.36
2018-02-22T10:14:12.962Z,40.49
2018-02-22T10:16:41.349Z,38.17
2018-02-22T10:19:09.711Z,38.90
2018-02-22T10:21:38.143Z,38.13
2018-02-22T10:24:06.532Z,38.96
2018-02-22T10:26:34.948Z,38.98
2018-02-22T10:29:04.262Z,38.52
2018-02-22T10:31:32.653Z,38.46
2018-02-22T10:34:01.089Z,36.90
2018-02-22T10:36:29.602Z,37.61
2018-02-22T10:38:57.983Z,38.14
2018-02-22T10:41:26.348Z,34.28
2018-02-22T10:43:54.721Z,35.40
2018-02-22T10:46:23.264Z,36.50
2018-02-22T10:48:51.722Z,39.80
2018-02-22T10:51:20.107Z,38.52
2018-02-22T10:53:48.473Z,39.09
2018-02-22T10:56:16.834Z,36.69
2018-02-22T10:58:45.208Z,37.54
2018-02-22T11:01:19.148Z,41.65
2018-02-22T11:03:47.536Z,40.56
2018-02-22T11:06:15.909Z,38.95
2018-02-22T11:08:44.301Z,40.72
2018-02-22T11:11:12.663Z,39.10
2018-02-22T11:13:41.139Z,38.21
2018-02-22T11:16:09.585Z,38.55
2018-02-22T11:18:37.991Z,39.92
2018-02-22T11:21:06.399Z,40.92
2018-02-22T11:23:34.875Z,41.56
2018-02-22T11:26:03.272Z,40.71
2018-02-22T11:28:31.685Z,40.01
2018-02-22T11:31:00.164Z,40.05
2018-02-22T11:33:28.587Z,40.34
2018-02-22T11:35:57.049Z,41.45
2018-02-22T11:38:25.521Z,40.25
2018-02-22T11:40:53.915Z,40.37
2018-02-22T11:43:22.411Z,42.16
2018-02-22T11:45:50.892Z,40.81
2018-02-22T11:48:19.282Z,40.25
2018-02-22T11:50:47.678Z,41.57
2018-02-22T11:53:16.142Z,42.56
2018-02-22T11:55:44.549Z,42.36
2018-02-22T11:58:12.986Z,41.34
2018-02-22T12:00:41.472Z,41.55
2018-02-22T12:03:09.908Z,40.79
2018-02-22T12:05:38.417Z,40.19
2018-02-22T12:08:07.185Z,42.11
2018-02-22T12:10:35.601Z,40.49
2018-02-22T12:13:04.023Z,41.02
2018-02-22T12:15:32.551Z,40.26
2018-02-22T12:18:00.965Z,40.21
2018-02-22T12:20:29.361Z,39.40
2018-02-22T12:22:57.988Z,40.52
2018-02-22T12:25:26.382Z,41.15
2018-02-22T12:27:54.755Z,39.01
2018-02-22T12:30:23.192Z,36.06
2018-02-22T12:32:51.570Z,35.14
2018-02-22T12:35:20.054Z,31.77
2018-02-22T12:37:48.522Z,30.65
2018-02-22T12:40:16.922Z,31.07
2018-02-22T12:42:45.318Z,30.39
2018-02-22T12:45:13.819Z,29.73
2018-02-22T12:47:42.303Z,27.69
2018-02-22T12:50:10.691Z,29.53
2018-02-22T12:52:39.097Z,29.91
2018-02-22T12:55:07.569Z,30.81
2018-02-22T12:57:36.054Z,30.98
2018-02-22T13:00:04.462Z,31.69
2018-02-22T13:02:32.867Z,33.54
2018-02-22T13:05:01.283Z,34.24
2018-02-22T13:07:29.769Z,35.15
2018-02-22T13:09:58.284Z,35.83
2018-02-22T13:12:26.688Z,37.52
2018-02-22T13:14:55.068Z,36.26
2018-02-22T13:17:23.503Z,38.79
2018-02-22T13:19:51.974Z,37.36
2018-02-22T13:22:20.366Z,38.40
2018-02-22T13:24:48.768Z,39.31
2018-02-22T13:27:17.233Z,38.56
2018-02-22T13:29:45.637Z,38.92
2018-02-22T13:32:14.095Z,37.58
2018-02-22T13:34:42.488Z,36.71
2018-02-22T13:37:22.727Z,37.24
2018-02-22T13:39:51.138Z,38.45
2018-02-22T13:42:19.535Z,39.34
2018-02-22T13:44:59.625Z,39.58
2018-02-22T13:47:28.099Z,39.98
2018-02-22T13:50:08.110Z,38.60
2018-02-22T13:52:36.579Z,39.25
2018-02-22T13:55:05.243Z,39.74
2018-02-22T13:57:33.650Z,39.19
2018-02-22T14:00:02.052Z,41.92
2018-02-22T14:02:30.431Z,40.44
2018-02-22T14:04:58.887Z,40.01
2018-02-22T14:07:27.278Z,39.18
2018-02-22T14:09:55.851Z,40.40
2018-02-22T14:12:25.145Z,40.00
2018-02-22T14:14:53.514Z,39.44
2018-02-22T14:17:21.880Z,39.69
2018-02-22T14:19:50.283Z,38.53
2018-02-22T14:22:18.719Z,38.97
2018-02-22T14:24:47.094Z,40.03
2018-02-22T14:27:15.494Z,38.43
2018-02-22T14:29:43.885Z,39.09
2018-02-22T14:32:12.267Z,37.78
2018-02-22T14:34:40.726Z,38.06
2018-02-22T14:37:09.103Z,37.47
2018-02-22T14:39:37.472Z,36.01
2018-02-22T14:42:06.034Z,36.85
2018-02-22T14:44:34.415Z,38.14
2018-02-22T14:47:02.781Z,37.28
2018-02-22T14:49:31.209Z,37.49
2018-02-22T14:51:59.623Z,39.33
2018-02-22T14:54:28.019Z,36.50
2018-02-22T14:56:56.555Z,37.25
2018-02-22T14:59:24.941Z,36.33
2018-02-22T15:01:53.324Z,38.63
2018-02-22T15:04:21.784Z,38.43
2018-02-22T15:06:50.150Z,40.55
2018-02-22T15:09:18.610Z,38.27
2018-02-22T15:11:47.046Z,37.99
2018-02-22T15:14:15.445Z,37.54
2018-02-22T15:16:43.832Z,38.72
2018-02-22T15:19:12.400Z,36.68
2018-02-22T15:21:40.777Z,36.55
2018-02-22T15:24:09.191Z,37.61
2018-02-22T15:26:37.637Z,38.34
2018-02-22T15:29:06.010Z,38.48
2018-02-22T15:31:34.456Z,37.01
2018-02-22T15:34:02.819Z,40.08
2018-02-22T15:36:31.295Z,40.00
2018-02-22T15:38:59.828Z,39.58
2018-02-22T15:41:28.220Z,40.33
2018-02-22T15:43:56.605Z,41.34
2018-02-22T15:46:24.996Z,41.47
2018-02-22T15:48:53.381Z,40.65
2018-02-22T15:51:21.849Z,40.28
2018-02-22T15:53:50.238Z,40.74
2018-02-22T15:56:18.699Z,40.97
2018-02-22T15:58:47.106Z,40.49
2018-02-22T16:01:15.495Z,41.46
2018-02-22T16:03:43.961Z,39.93
2018-02-22T16:06:12.346Z,41.20
2018-02-22T16:08:40.726Z,40.69
2018-02-22T16:11:09.284Z,39.35
2018-02-22T16:13:37.845Z,38.74
2018-02-22T16:16:06.626Z,38.85
2018-02-22T16:18:35.219Z,39.98
2018-02-22T16:21:03.762Z,40.58
2018-02-22T16:23:32.144Z,40.30
2018-02-22T16:26:00.616Z,41.65
2018-02-22T16:28:28.998Z,40.23
2018-02-22T16:30:57.385Z,41.90
2018-02-22T16:33:25.824Z,40.58
2018-02-22T16:35:54.228Z,39.81
2018-02-22T16:38:22.609Z,40.03
2018-02-22T16:40:50.989Z,44.43
2018-02-22T16:43:19.380Z,41.57
2018-02-22T16:45:48.114Z,39.99
2018-02-22T16:48:16.509Z,43.25
2018-02-22T16:50:44.896Z,43.51
2018-02-22T16:53:13.283Z,43.60
2018-02-22T16:55:41.682Z,43.15
2018-02-22T16:58:10.121Z,43.47
2018-02-22T17:00:38.511Z,41.69
2018-02-22T17:03:06.899Z,40.67
2018-02-22T17:05:35.298Z,42.40
2018-02-22T17:08:03.696Z,41.83
2018-02-22T17:10:32.202Z,43.54
2018-02-22T17:13:00.598Z,42.37
2018-02-22T17:15:28.979Z,44.51
2018-02-22T17:17:57.376Z,42.79
2018-02-22T17:20:25.765Z,42.89
2018-02-22T17:22:54.235Z,43.12
2018-02-22T17:25:22.258Z,45.15
2018-02-22T17:27:56.286Z,45.13
2018-02-22T17:30:31.082Z,43.93
2018-02-22T17:32:59.540Z,44.94
2018-02-22T17:35:33.513Z,45.45
2018-02-22T17:41:11.795Z,44.54
2018-02-22T17:43:40.314Z,43.61
2018-02-22T17:46:08.692Z,44.30
2018-02-22T17:48:37.123Z,46.99
2018-02-22T17:51:05.481Z,45.68
2018-02-22T17:53:33.900Z,43.92
2018-02-22T17:56:02.254Z,46.88
2018-02-22T17:58:30.646Z,48.58
2018-02-22T18:00:59.017Z,51.15
2018-02-22T18:03:27.542Z,49.21
2018-02-22T18:05:56.073Z,49.70
2018-02-22T18:08:24.440Z,51.35
2018-02-22T18:10:52.795Z,50.93
2018-02-22T18:13:21.150Z,50.20
2018-02-22T18:15:49.524Z,52.22
2018-02-22T18:18:17.956Z,49.86
2018-02-22T18:20:46.325Z,48.66
2018-02-22T18:23:14.709Z,48.40
2018-02-22T18:25:43.087Z,49.01
2018-02-22T18:28:11.531Z,48.27
2018-02-22T18:30:40.033Z,50.20
2018-02-22T18:33:08.414Z,51.36
2018-02-22T18:35:36.765Z,51.34
2018-02-22T18:38:05.147Z,51.22
2018-02-22T18:40:39.127Z,52.56
2018-02-22T18:43:13.213Z,50.33
2018-02-22T18:45:41.588Z,51.30
2018-02-22T18:48:10.060Z,52.04
2018-02-22T18:50:38.447Z,49.53
2018-02-22T18:53:06.847Z,53.09
2018-02-22T18:55:35.227Z,52.87
2018-02-22T18:58:03.627Z,54.04
2018-02-22T19:00:32.048Z,50.25
2018-02-22T19:03:00.428Z,51.52
2018-02-22T19:05:28.818Z,50.72
2018-02-22T19:07:57.224Z,51.73
2018-02-22T19:10:25.589Z,49.15
2018-02-22T19:12:54.013Z,51.25
2018-02-22T19:15:22.477Z,50.03
2018-02-22T19:17:50.857Z,47.90
2018-02-22T19:20:19.243Z,51.77
2018-02-22T19:22:47.616Z,47.62
2018-02-22T19:25:16.027Z,49.58
2018-02-22T19:27:44.407Z,49.58
2018-02-22T19:30:12.769Z,47.63
2018-02-22T19:32:41.248Z,50.68
2018-02-22T19:35:09.612Z,50.03
2018-02-22T19:37:38.418Z,47.23
2018-02-22T19:40:06.791Z,46.48
2018-02-22T19:42:35.156Z,46.88
2018-02-22T19:45:03.527Z,47.46
2018-02-22T19:47:32.142Z,46.85
2018-02-22T19:50:00.550Z,44.65
2018-02-22T19:52:28.958Z,45.97
2018-02-22T19:54:57.319Z,48.33
2018-02-22T19:57:25.756Z,49.02
2018-02-22T19:59:54.292Z,48.82
2018-02-22T20:02:22.709Z,48.65
2018-02-22T20:04:51.085Z,47.52
2018-02-22T20:07:19.450Z,48.90
2018-02-22T20:09:47.815Z,50.26
2018-02-22T20:12:16.265Z,46.79
2018-02-22T20:14:44.971Z,46.65
2018-02-22T20:17:13.343Z,46.25
2018-02-22T20:19:41.707Z,47.14
2018-02-22T20:22:10.079Z,47.42
2018-02-22T20:24:38.449Z,49.80
2018-02-22T20:27:06.857Z,46.78
2018-02-22T20:29:35.220Z,48.95
2018-02-22T20:32:03.725Z,47.56
2018-02-22T20:34:32.086Z,45.66
2018-02-22T20:37:00.461Z,45.52
2018-02-22T20:39:28.818Z,45.34
2018-02-22T20:41:57.179Z,46.32
2018-02-22T20:44:25.576Z,45.73
2018-02-22T20:46:53.950Z,46.89
2018-02-22T20:49:22.326Z,46.05
2018-02-22T20:51:50.885Z,45.07
2018-02-22T20:54:19.288Z,43.68
2018-02-22T20:56:47.694Z,45.42
2018-02-22T20:59:16.145Z,44.65
2018-02-22T21:01:44.595Z,48.58
2018-02-22T21:04:14.026Z,45.51
2018-02-22T21:06:42.671Z,48.80
2018-02-22T21:09:11.308Z,46.84
2018-02-22T21:11:39.705Z,47.44
2018-02-22T21:14:08.261Z,44.14
2018-02-22T21:16:36.657Z,47.76
2018-02-22T21:19:05.136Z,47.02
2018-02-22T21:21:33.526Z,45.04
2018-02-22T21:24:01.928Z,44.60
2018-02-22T21:26:31.379Z,44.09
2018-02-22T21:28:59.764Z,45.91
2018-02-22T21:31:31.245Z,46.53
2018-02-22T21:33:59.732Z,48.49
2018-02-22T21:36:28.488Z,49.92
2018-02-22T21:38:56.880Z,49.89
2018-02-22T21:41:31.538Z,49.25
2018-02-22T21:43:59.973Z,49.62
2018-02-22T21:46:29.160Z,50.61
2018-02-22T21:48:57.617Z,52.00
2018-02-22T21:51:25.991Z,51.60
2018-02-22T21:53:54.342Z,48.49
2018-02-22T21:56:23.080Z,49.04
2018-02-22T21:58:51.442Z,47.72
2018-02-22T22:01:19.823Z,48.13
2018-02-22T22:03:48.185Z,49.35
2018-02-22T22:06:16.537Z,48.84
2018-02-22T22:08:45.270Z,48.50
2018-02-22T22:11:13.638Z,47.28
2018-02-22T22:13:42.008Z,47.96
2018-02-22T22:16:10.360Z,48.03
2018-02-22T22:18:39.095Z,48.53
2018-02-22T22:21:07.605Z,48.49
2018-02-22T22:23:36.254Z,50.75
2018-02-22T22:26:04.632Z,52.08
2018-02-22T22:28:32.993Z,50.87
2018-02-22T22:31:01.464Z,50.72
2018-02-22T22:33:29.932Z,49.79
2018-02-22T22:35:58.286Z,49.91
2018-02-22T22:38:26.654Z,49.97
2018-02-22T22:40:55.029Z,50.63
2018-02-22T22:43:23.506Z,51.58
2018-02-22T22:45:51.926Z,51.21
2018-02-22T22:48:20.399Z,50.19
2018-02-22T22:50:48.753Z,52.61
2018-02-22T22:53:17.116Z,52.64
2018-02-22T22:55:45.476Z,52.37
2018-02-22T22:58:13.867Z,53.63
2018-02-22T23:00:42.278Z,53.16
2018-02-22T23:03:10.634Z,50.61
2018-02-22T23:05:39.020Z,51.63
2018-02-22T23:08:07.386Z,53.52
2018-02-22T23:10:35.861Z,51.83
2018-02-22T23:13:04.219Z,53.07
2018-02-22T23:15:32.603Z,53.04
2018-02-22T23:18:00.969Z,50.54
2018-02-22T23:20:29.317Z,51.77
2018-02-22T23:22:57.694Z,51.01
2018-02-22T23:25:26.048Z,51.18
2018-02-22T23:27:54.410Z,52.13
2018-02-22T23:30:22.762Z,52.56
2018-02-22T23:32:51.120Z,51.91
2018-02-22T23:35:19.518Z,54.49
2018-02-22T23:37:47.906Z,53.09
2018-02-22T23:40:16.350Z,50.77
2018-02-22T23:42:44.740Z,50.08
2018-02-22T23:45:13.143Z,49.82
2018-02-22T23:47:41.535Z,50.81
2018-02-22T23:50:09.937Z,50.57
2018-02-22T23:52:38.348Z,49.33
2018-02-22T23:55:06.802Z,49.15
2018-02-22T23:57:35.184Z,52.19
